sensor_id;sensor_type;location;lat;lon;timestamp;P1;durP1;ratioP1;P2;durP2;ratioP2
22107;SDS011;11220;48.812;9.128;2024-01-11T00:01:16;1.02;;;0.93;;
22107;SDS011;11220;48.812;9.128;2024-01-11T00:03:41;1.17;;;0.90;;
22107;SDS011;11220;48.812;9.128;2024-01-11T00:06:10;0.98;;;0.90;;
22107;SDS011;11220;48.812;9.128;2024-01-11T00:08:36;0.95;;;0.80;;
22107;SDS011;11220;48.812;9.128;2024-01-11T00:11:01;1.25;;;1.05;;
22107;SDS011;11220;48.812;9.128;2024-01-11T00:13:27;1.00;;;0.60;;
22107;SDS011;11220;48.812;9.128;2024-01-11T00:15:52;1.20;;;1.10;;
22107;SDS011;11220;48.812;9.128;2024-01-11T00:18:18;1.15;;;1.00;;
22107;SDS011;11220;48.812;9.128;2024-01-11T00:20:44;1.33;;;0.93;;
22107;SDS011;11220;48.812;9.128;2024-01-11T00:23:09;1.05;;;0.95;;
22107;SDS011;11220;48.812;9.128;2024-01-11T00:25:35;0.93;;;0.82;;
22107;SDS011;11220;48.812;9.128;2024-01-11T00:28:01;0.80;;;0.80;;
22107;SDS011;11220;48.812;9.128;2024-01-11T00:30:26;1.60;;;1.00;;
22107;SDS011;11220;48.812;9.128;2024-01-11T00:32:52;1.42;;;0.98;;
22107;SDS011;11220;48.812;9.128;2024-01-11T00:35:17;1.33;;;0.80;;
22107;SDS011;11220;48.812;9.128;2024-01-11T00:37:43;1.02;;;1.00;;
22107;SDS011;11220;48.812;9.128;2024-01-11T00:40:09;1.27;;;1.08;;
22107;SDS011;11220;48.812;9.128;2024-01-11T00:42:35;1.30;;;1.02;;
22107;SDS011;11220;48.812;9.128;2024-01-11T00:45:00;1.65;;;1.10;;
22107;SDS011;11220;48.812;9.128;2024-01-11T00:47:26;2.28;;;1.20;;
22107;SDS011;11220;48.812;9.128;2024-01-11T00:49:52;1.20;;;1.10;;
22107;SDS011;11220;48.812;9.128;2024-01-11T00:52:17;1.02;;;0.85;;
22107;SDS011;11220;48.812;9.128;2024-01-11T00:54:43;1.80;;;0.82;;
22107;SDS011;11220;48.812;9.128;2024-01-11T00:57:08;1.38;;;1.00;;
22107;SDS011;11220;48.812;9.128;2024-01-11T00:59:34;1.48;;;0.90;;
22107;SDS011;11220;48.812;9.128;2024-01-11T01:01:59;1.58;;;1.23;;
22107;SDS011;11220;48.812;9.128;2024-01-11T01:04:25;1.88;;;1.17;;
22107;SDS011;11220;48.812;9.128;2024-01-11T01:06:50;1.55;;;1.00;;
22107;SDS011;11220;48.812;9.128;2024-01-11T01:09:16;1.45;;;1.00;;
22107;SDS011;11220;48.812;9.128;2024-01-11T01:11:42;1.48;;;1.10;;
22107;SDS011;11220;48.812;9.128;2024-01-11T01:14:07;1.20;;;1.00;;
22107;SDS011;11220;48.812;9.128;2024-01-11T01:16:33;1.70;;;1.10;;
22107;SDS011;11220;48.812;9.128;2024-01-11T01:18:58;1.38;;;0.98;;
22107;SDS011;11220;48.812;9.128;2024-01-11T01:21:24;1.58;;;1.10;;
22107;SDS011;11220;48.812;9.128;2024-01-11T01:23:49;1.23;;;1.13;;
22107;SDS011;11220;48.812;9.128;2024-01-11T01:26:15;1.77;;;1.00;;
22107;SDS011;11220;48.812;9.128;2024-01-11T01:28:40;1.88;;;1.38;;
22107;SDS011;11220;48.812;9.128;2024-01-11T01:31:06;1.42;;;1.00;;
22107;SDS011;11220;48.812;9.128;2024-01-11T01:33:32;1.30;;;1.15;;
22107;SDS011;11220;48.812;9.128;2024-01-11T01:35:57;1.45;;;1.15;;
22107;SDS011;11220;48.812;9.128;2024-01-11T01:38:23;1.70;;;1.10;;
22107;SDS011;11220;48.812;9.128;2024-01-11T01:40:49;1.42;;;1.00;;
22107;SDS011;11220;48.812;9.128;2024-01-11T01:43:14;1.27;;;1.10;;
22107;SDS011;11220;48.812;9.128;2024-01-11T01:45:40;1.60;;;1.33;;
22107;SDS011;11220;48.812;9.128;2024-01-11T01:48:06;1.88;;;1.15;;
22107;SDS011;11220;48.812;9.128;2024-01-11T01:50:32;1.65;;;1.35;;
22107;SDS011;11220;48.812;9.128;2024-01-11T01:52:57;1.48;;;1.20;;
22107;SDS011;11220;48.812;9.128;2024-01-11T01:55:24;1.40;;;1.13;;
22107;SDS011;11220;48.812;9.128;2024-01-11T01:57:51;1.42;;;1.08;;
22107;SDS011;11220;48.812;9.128;2024-01-11T02:00:17;1.30;;;1.20;;
22107;SDS011;11220;48.812;9.128;2024-01-11T02:02:43;1.75;;;1.20;;
22107;SDS011;11220;48.812;9.128;2024-01-11T02:05:11;1.40;;;1.27;;
22107;SDS011;11220;48.812;9.128;2024-01-11T02:07:38;1.73;;;1.17;;
22107;SDS011;11220;48.812;9.128;2024-01-11T02:10:05;1.27;;;1.13;;
22107;SDS011;11220;48.812;9.128;2024-01-11T02:12:31;1.73;;;1.40;;
22107;SDS011;11220;48.812;9.128;2024-01-11T02:14:58;1.65;;;1.30;;
22107;SDS011;11220;48.812;9.128;2024-01-11T02:17:25;1.88;;;1.30;;
22107;SDS011;11220;48.812;9.128;2024-01-11T02:19:50;1.40;;;0.95;;
22107;SDS011;11220;48.812;9.128;2024-01-11T02:22:19;1.30;;;1.20;;
22107;SDS011;11220;48.812;9.128;2024-01-11T02:24:49;1.67;;;1.25;;
22107;SDS011;11220;48.812;9.128;2024-01-11T02:27:14;1.65;;;1.30;;
22107;SDS011;11220;48.812;9.128;2024-01-11T02:29:40;1.92;;;1.00;;
22107;SDS011;11220;48.812;9.128;2024-01-11T02:32:05;1.35;;;1.25;;
22107;SDS011;11220;48.812;9.128;2024-01-11T02:34:31;1.58;;;1.10;;
22107;SDS011;11220;48.812;9.128;2024-01-11T02:36:57;1.35;;;1.25;;
22107;SDS011;11220;48.812;9.128;2024-01-11T02:39:23;2.35;;;0.90;;
22107;SDS011;11220;48.812;9.128;2024-01-11T02:41:50;1.42;;;1.10;;
22107;SDS011;11220;48.812;9.128;2024-01-11T02:44:17;1.90;;;1.10;;
22107;SDS011;11220;48.812;9.128;2024-01-11T02:46:42;2.03;;;1.10;;
22107;SDS011;11220;48.812;9.128;2024-01-11T02:49:08;1.92;;;1.25;;
22107;SDS011;11220;48.812;9.128;2024-01-11T02:51:34;1.40;;;1.05;;
22107;SDS011;11220;48.812;9.128;2024-01-11T02:54:00;1.85;;;1.33;;
22107;SDS011;11220;48.812;9.128;2024-01-11T02:56:26;2.22;;;1.30;;
22107;SDS011;11220;48.812;9.128;2024-01-11T02:58:51;1.80;;;1.27;;
22107;SDS011;11220;48.812;9.128;2024-01-11T03:01:17;1.92;;;1.40;;
22107;SDS011;11220;48.812;9.128;2024-01-11T03:03:43;2.00;;;1.30;;
22107;SDS011;11220;48.812;9.128;2024-01-11T03:06:08;1.92;;;1.33;;
22107;SDS011;11220;48.812;9.128;2024-01-11T03:08:34;1.30;;;1.10;;
22107;SDS011;11220;48.812;9.128;2024-01-11T03:11:00;1.65;;;1.20;;
22107;SDS011;11220;48.812;9.128;2024-01-11T03:13:26;1.90;;;1.20;;
22107;SDS011;11220;48.812;9.128;2024-01-11T03:15:52;1.70;;;1.20;;
22107;SDS011;11220;48.812;9.128;2024-01-11T03:18:17;2.28;;;1.40;;
22107;SDS011;11220;48.812;9.128;2024-01-11T03:20:42;1.83;;;1.30;;
22107;SDS011;11220;48.812;9.128;2024-01-11T03:23:08;1.95;;;1.38;;
22107;SDS011;11220;48.812;9.128;2024-01-11T03:25:34;1.75;;;1.25;;
22107;SDS011;11220;48.812;9.128;2024-01-11T03:27:59;1.42;;;1.13;;
22107;SDS011;11220;48.812;9.128;2024-01-11T03:30:25;1.90;;;1.33;;
22107;SDS011;11220;48.812;9.128;2024-01-11T03:32:51;1.50;;;1.10;;
22107;SDS011;11220;48.812;9.128;2024-01-11T03:35:17;1.70;;;1.50;;
22107;SDS011;11220;48.812;9.128;2024-01-11T03:37:43;1.55;;;1.17;;
22107;SDS011;11220;48.812;9.128;2024-01-11T03:40:09;1.40;;;1.00;;
22107;SDS011;11220;48.812;9.128;2024-01-11T03:42:34;1.45;;;1.27;;
22107;SDS011;11220;48.812;9.128;2024-01-11T03:45:00;1.52;;;1.42;;
22107;SDS011;11220;48.812;9.128;2024-01-11T03:47:25;1.75;;;1.40;;
22107;SDS011;11220;48.812;9.128;2024-01-11T03:49:51;1.65;;;1.10;;
22107;SDS011;11220;48.812;9.128;2024-01-11T03:52:16;1.88;;;1.20;;
22107;SDS011;11220;48.812;9.128;2024-01-11T03:54:42;1.27;;;1.10;;
22107;SDS011;11220;48.812;9.128;2024-01-11T03:57:07;1.85;;;1.38;;
22107;SDS011;11220;48.812;9.128;2024-01-11T03:59:33;1.13;;;1.02;;
22107;SDS011;11220;48.812;9.128;2024-01-11T04:02:00;1.30;;;1.00;;
22107;SDS011;11220;48.812;9.128;2024-01-11T04:04:25;1.52;;;1.20;;
22107;SDS011;11220;48.812;9.128;2024-01-11T04:06:51;1.45;;;1.30;;
22107;SDS011;11220;48.812;9.128;2024-01-11T04:09:17;1.75;;;1.20;;
22107;SDS011;11220;48.812;9.128;2024-01-11T04:11:43;1.50;;;1.23;;
22107;SDS011;11220;48.812;9.128;2024-01-11T04:14:08;1.98;;;1.23;;
22107;SDS011;11220;48.812;9.128;2024-01-11T04:16:34;1.42;;;1.20;;
22107;SDS011;11220;48.812;9.128;2024-01-11T04:19:05;1.85;;;1.10;;
22107;SDS011;11220;48.812;9.128;2024-01-11T04:21:30;1.60;;;1.40;;
22107;SDS011;11220;48.812;9.128;2024-01-11T04:23:56;1.63;;;1.23;;
22107;SDS011;11220;48.812;9.128;2024-01-11T04:26:22;2.17;;;1.45;;
22107;SDS011;11220;48.812;9.128;2024-01-11T04:28:48;1.52;;;1.35;;
22107;SDS011;11220;48.812;9.128;2024-01-11T04:31:14;1.73;;;1.10;;
22107;SDS011;11220;48.812;9.128;2024-01-11T04:33:41;1.95;;;1.20;;
22107;SDS011;11220;48.812;9.128;2024-01-11T04:36:08;1.75;;;1.10;;
22107;SDS011;11220;48.812;9.128;2024-01-11T04:38:34;1.33;;;1.10;;
22107;SDS011;11220;48.812;9.128;2024-01-11T04:41:00;1.15;;;1.02;;
22107;SDS011;11220;48.812;9.128;2024-01-11T04:43:25;1.48;;;1.38;;
22107;SDS011;11220;48.812;9.128;2024-01-11T04:45:51;1.30;;;1.15;;
22107;SDS011;11220;48.812;9.128;2024-01-11T04:48:17;2.03;;;1.30;;
22107;SDS011;11220;48.812;9.128;2024-01-11T04:50:43;1.73;;;1.38;;
22107;SDS011;11220;48.812;9.128;2024-01-11T04:53:09;2.03;;;1.52;;
22107;SDS011;11220;48.812;9.128;2024-01-11T04:55:34;1.85;;;1.33;;
22107;SDS011;11220;48.812;9.128;2024-01-11T04:58:00;1.30;;;1.10;;
22107;SDS011;11220;48.812;9.128;2024-01-11T05:00:25;1.58;;;1.27;;
22107;SDS011;11220;48.812;9.128;2024-01-11T05:02:51;1.85;;;1.10;;
22107;SDS011;11220;48.812;9.128;2024-01-11T05:05:16;2.25;;;1.52;;
22107;SDS011;11220;48.812;9.128;2024-01-11T05:07:42;1.27;;;1.10;;
22107;SDS011;11220;48.812;9.128;2024-01-11T05:10:08;1.45;;;1.33;;
22107;SDS011;11220;48.812;9.128;2024-01-11T05:12:33;1.67;;;1.30;;
22107;SDS011;11220;48.812;9.128;2024-01-11T05:14:59;1.55;;;1.27;;
22107;SDS011;11220;48.812;9.128;2024-01-11T05:17:25;1.55;;;1.30;;
22107;SDS011;11220;48.812;9.128;2024-01-11T05:19:51;1.35;;;1.15;;
22107;SDS011;11220;48.812;9.128;2024-01-11T05:22:17;1.60;;;1.23;;
22107;SDS011;11220;48.812;9.128;2024-01-11T05:24:43;1.55;;;1.42;;
22107;SDS011;11220;48.812;9.128;2024-01-11T05:27:08;2.30;;;1.27;;
22107;SDS011;11220;48.812;9.128;2024-01-11T05:29:34;1.77;;;1.17;;
22107;SDS011;11220;48.812;9.128;2024-01-11T05:31:59;2.28;;;1.40;;
22107;SDS011;11220;48.812;9.128;2024-01-11T05:34:25;1.45;;;1.17;;
22107;SDS011;11220;48.812;9.128;2024-01-11T05:36:50;1.40;;;1.10;;
22107;SDS011;11220;48.812;9.128;2024-01-11T05:39:16;1.48;;;1.35;;
22107;SDS011;11220;48.812;9.128;2024-01-11T05:41:44;1.52;;;1.25;;
22107;SDS011;11220;48.812;9.128;2024-01-11T05:44:10;2.10;;;1.40;;
22107;SDS011;11220;48.812;9.128;2024-01-11T05:46:36;1.58;;;1.30;;
22107;SDS011;11220;48.812;9.128;2024-01-11T05:49:01;1.50;;;1.20;;
22107;SDS011;11220;48.812;9.128;2024-01-11T05:51:27;2.33;;;1.40;;
22107;SDS011;11220;48.812;9.128;2024-01-11T05:53:52;1.65;;;1.30;;
22107;SDS011;11220;48.812;9.128;2024-01-11T05:56:18;1.67;;;1.30;;
22107;SDS011;11220;48.812;9.128;2024-01-11T05:58:45;1.33;;;1.05;;
22107;SDS011;11220;48.812;9.128;2024-01-11T06:01:11;1.33;;;1.23;;
22107;SDS011;11220;48.812;9.128;2024-01-11T06:03:37;1.92;;;1.30;;
22107;SDS011;11220;48.812;9.128;2024-01-11T06:06:03;1.65;;;1.00;;
22107;SDS011;11220;48.812;9.128;2024-01-11T06:08:29;1.58;;;1.10;;
22107;SDS011;11220;48.812;9.128;2024-01-11T06:10:55;1.42;;;1.10;;
22107;SDS011;11220;48.812;9.128;2024-01-11T06:13:21;1.83;;;1.10;;
22107;SDS011;11220;48.812;9.128;2024-01-11T06:15:47;2.10;;;1.20;;
22107;SDS011;11220;48.812;9.128;2024-01-11T06:18:12;2.20;;;1.10;;
22107;SDS011;11220;48.812;9.128;2024-01-11T06:20:38;1.48;;;1.10;;
22107;SDS011;11220;48.812;9.128;2024-01-11T06:23:03;1.48;;;1.35;;
22107;SDS011;11220;48.812;9.128;2024-01-11T06:25:29;1.70;;;1.00;;
22107;SDS011;11220;48.812;9.128;2024-01-11T06:27:54;1.77;;;1.20;;
22107;SDS011;11220;48.812;9.128;2024-01-11T06:30:20;1.83;;;1.48;;
22107;SDS011;11220;48.812;9.128;2024-01-11T06:32:46;1.75;;;1.38;;
22107;SDS011;11220;48.812;9.128;2024-01-11T06:35:12;1.50;;;1.35;;
22107;SDS011;11220;48.812;9.128;2024-01-11T06:37:37;1.92;;;1.42;;
22107;SDS011;11220;48.812;9.128;2024-01-11T06:40:03;1.55;;;1.23;;
22107;SDS011;11220;48.812;9.128;2024-01-11T06:42:30;1.38;;;0.95;;
22107;SDS011;11220;48.812;9.128;2024-01-11T06:44:55;1.23;;;1.00;;
22107;SDS011;11220;48.812;9.128;2024-01-11T06:47:21;1.48;;;1.10;;
22107;SDS011;11220;48.812;9.128;2024-01-11T06:49:46;1.40;;;1.23;;
22107;SDS011;11220;48.812;9.128;2024-01-11T06:52:12;1.08;;;0.82;;
22107;SDS011;11220;48.812;9.128;2024-01-11T06:54:39;1.58;;;1.48;;
22107;SDS011;11220;48.812;9.128;2024-01-11T06:57:04;1.20;;;1.10;;
22107;SDS011;11220;48.812;9.128;2024-01-11T06:59:30;1.42;;;1.30;;
22107;SDS011;11220;48.812;9.128;2024-01-11T07:01:55;1.48;;;1.20;;
22107;SDS011;11220;48.812;9.128;2024-01-11T07:04:21;1.48;;;1.30;;
22107;SDS011;11220;48.812;9.128;2024-01-11T07:06:47;1.60;;;1.23;;
22107;SDS011;11220;48.812;9.128;2024-01-11T07:09:12;2.10;;;1.42;;
22107;SDS011;11220;48.812;9.128;2024-01-11T07:11:38;1.85;;;1.38;;
22107;SDS011;11220;48.812;9.128;2024-01-11T07:14:03;1.73;;;1.25;;
22107;SDS011;11220;48.812;9.128;2024-01-11T07:16:29;2.63;;;1.48;;
22107;SDS011;11220;48.812;9.128;2024-01-11T07:18:55;2.55;;;1.55;;
22107;SDS011;11220;48.812;9.128;2024-01-11T07:21:23;1.92;;;1.40;;
22107;SDS011;11220;48.812;9.128;2024-01-11T07:23:54;2.05;;;1.38;;
22107;SDS011;11220;48.812;9.128;2024-01-11T07:26:21;1.63;;;1.30;;
22107;SDS011;11220;48.812;9.128;2024-01-11T07:28:48;2.13;;;1.75;;
22107;SDS011;11220;48.812;9.128;2024-01-11T07:31:13;2.92;;;1.83;;
22107;SDS011;11220;48.812;9.128;2024-01-11T07:33:39;1.80;;;1.50;;
22107;SDS011;11220;48.812;9.128;2024-01-11T07:36:05;1.48;;;1.38;;
22107;SDS011;11220;48.812;9.128;2024-01-11T07:38:31;1.73;;;1.42;;
22107;SDS011;11220;48.812;9.128;2024-01-11T07:40:57;2.17;;;1.60;;
22107;SDS011;11220;48.812;9.128;2024-01-11T07:43:23;1.48;;;1.17;;
22107;SDS011;11220;48.812;9.128;2024-01-11T07:45:51;1.50;;;1.20;;
22107;SDS011;11220;48.812;9.128;2024-01-11T07:48:17;1.90;;;1.50;;
22107;SDS011;11220;48.812;9.128;2024-01-11T07:50:43;2.03;;;1.33;;
22107;SDS011;11220;48.812;9.128;2024-01-11T07:53:09;1.80;;;1.30;;
22107;SDS011;11220;48.812;9.128;2024-01-11T07:55:34;1.90;;;1.38;;
22107;SDS011;11220;48.812;9.128;2024-01-11T07:58:00;1.67;;;1.40;;
22107;SDS011;11220;48.812;9.128;2024-01-11T08:00:26;1.90;;;1.67;;
22107;SDS011;11220;48.812;9.128;2024-01-11T08:02:51;1.85;;;1.10;;
22107;SDS011;11220;48.812;9.128;2024-01-11T08:05:19;1.75;;;1.35;;
22107;SDS011;11220;48.812;9.128;2024-01-11T08:07:45;2.50;;;1.10;;
22107;SDS011;11220;48.812;9.128;2024-01-11T08:10:10;1.67;;;1.40;;
22107;SDS011;11220;48.812;9.128;2024-01-11T08:12:36;1.52;;;1.42;;
22107;SDS011;11220;48.812;9.128;2024-01-11T08:15:02;1.80;;;1.40;;
22107;SDS011;11220;48.812;9.128;2024-01-11T08:17:30;1.95;;;1.63;;
22107;SDS011;11220;48.812;9.128;2024-01-11T08:19:56;1.60;;;1.30;;
22107;SDS011;11220;48.812;9.128;2024-01-11T08:22:22;1.40;;;1.23;;
22107;SDS011;11220;48.812;9.128;2024-01-11T08:24:48;1.80;;;1.27;;
22107;SDS011;11220;48.812;9.128;2024-01-11T08:27:16;1.70;;;1.33;;
22107;SDS011;11220;48.812;9.128;2024-01-11T08:29:42;2.10;;;1.30;;
22107;SDS011;11220;48.812;9.128;2024-01-11T08:32:08;1.60;;;1.23;;
22107;SDS011;11220;48.812;9.128;2024-01-11T08:34:34;1.40;;;1.27;;
22107;SDS011;11220;48.812;9.128;2024-01-11T08:37:02;2.42;;;1.40;;
22107;SDS011;11220;48.812;9.128;2024-01-11T08:39:27;2.15;;;1.20;;
22107;SDS011;11220;48.812;9.128;2024-01-11T08:41:53;2.80;;;1.48;;
22107;SDS011;11220;48.812;9.128;2024-01-11T08:44:21;1.75;;;1.50;;
22107;SDS011;11220;48.812;9.128;2024-01-11T08:46:49;2.38;;;1.40;;
22107;SDS011;11220;48.812;9.128;2024-01-11T08:49:14;1.83;;;1.40;;
22107;SDS011;11220;48.812;9.128;2024-01-11T08:51:40;1.50;;;0.95;;
22107;SDS011;11220;48.812;9.128;2024-01-11T08:54:06;1.60;;;1.35;;
22107;SDS011;11220;48.812;9.128;2024-01-11T08:56:34;1.40;;;1.23;;
22107;SDS011;11220;48.812;9.128;2024-01-11T08:58:59;1.85;;;1.40;;
22107;SDS011;11220;48.812;9.128;2024-01-11T09:01:25;1.85;;;1.35;;
22107;SDS011;11220;48.812;9.128;2024-01-11T09:03:50;2.25;;;1.60;;
22107;SDS011;11220;48.812;9.128;2024-01-11T09:06:16;1.60;;;1.20;;
22107;SDS011;11220;48.812;9.128;2024-01-11T09:08:41;1.75;;;1.17;;
22107;SDS011;11220;48.812;9.128;2024-01-11T09:11:07;1.45;;;1.23;;
22107;SDS011;11220;48.812;9.128;2024-01-11T09:13:32;2.38;;;1.30;;
22107;SDS011;11220;48.812;9.128;2024-01-11T09:15:58;1.30;;;1.00;;
22107;SDS011;11220;48.812;9.128;2024-01-11T09:18:23;1.60;;;1.50;;
22107;SDS011;11220;48.812;9.128;2024-01-11T09:20:49;1.65;;;1.40;;
22107;SDS011;11220;48.812;9.128;2024-01-11T09:23:15;1.85;;;1.20;;
22107;SDS011;11220;48.812;9.128;2024-01-11T09:25:42;1.42;;;1.13;;
22107;SDS011;11220;48.812;9.128;2024-01-11T09:28:08;1.48;;;1.33;;
22107;SDS011;11220;48.812;9.128;2024-01-11T09:30:33;1.48;;;1.35;;
22107;SDS011;11220;48.812;9.128;2024-01-11T09:32:59;1.63;;;1.27;;
22107;SDS011;11220;48.812;9.128;2024-01-11T09:35:25;1.42;;;1.30;;
22107;SDS011;11220;48.812;9.128;2024-01-11T09:37:50;1.27;;;1.10;;
22107;SDS011;11220;48.812;9.128;2024-01-11T09:40:17;1.58;;;1.30;;
22107;SDS011;11220;48.812;9.128;2024-01-11T09:42:43;1.60;;;1.38;;
22107;SDS011;11220;48.812;9.128;2024-01-11T09:45:10;1.85;;;1.35;;
22107;SDS011;11220;48.812;9.128;2024-01-11T09:47:38;2.30;;;1.70;;
22107;SDS011;11220;48.812;9.128;2024-01-11T09:50:05;1.40;;;1.30;;
22107;SDS011;11220;48.812;9.128;2024-01-11T09:52:32;1.90;;;1.33;;
22107;SDS011;11220;48.812;9.128;2024-01-11T09:54:58;1.63;;;1.25;;
22107;SDS011;11220;48.812;9.128;2024-01-11T09:57:31;1.58;;;1.48;;
22107;SDS011;11220;48.812;9.128;2024-01-11T10:00:00;1.58;;;1.23;;
22107;SDS011;11220;48.812;9.128;2024-01-11T10:02:32;2.22;;;1.40;;
22107;SDS011;11220;48.812;9.128;2024-01-11T10:04:58;1.73;;;1.60;;
22107;SDS011;11220;48.812;9.128;2024-01-11T10:07:24;1.65;;;1.40;;
22107;SDS011;11220;48.812;9.128;2024-01-11T10:09:50;1.90;;;1.35;;
22107;SDS011;11220;48.812;9.128;2024-01-11T10:12:19;2.03;;;1.50;;
22107;SDS011;11220;48.812;9.128;2024-01-11T10:14:48;2.03;;;1.55;;
22107;SDS011;11220;48.812;9.128;2024-01-11T10:17:13;2.10;;;1.55;;
22107;SDS011;11220;48.812;9.128;2024-01-11T10:19:39;2.20;;;1.30;;
22107;SDS011;11220;48.812;9.128;2024-01-11T10:22:05;1.35;;;1.23;;
22107;SDS011;11220;48.812;9.128;2024-01-11T10:24:31;1.73;;;1.33;;
22107;SDS011;11220;48.812;9.128;2024-01-11T10:26:57;1.52;;;1.40;;
22107;SDS011;11220;48.812;9.128;2024-01-11T10:29:30;1.63;;;1.40;;
22107;SDS011;11220;48.812;9.128;2024-01-11T10:31:56;2.35;;;1.30;;
22107;SDS011;11220;48.812;9.128;2024-01-11T10:34:24;2.05;;;1.67;;
22107;SDS011;11220;48.812;9.128;2024-01-11T10:36:50;1.38;;;1.20;;
22107;SDS011;11220;48.812;9.128;2024-01-11T10:39:16;1.73;;;1.35;;
22107;SDS011;11220;48.812;9.128;2024-01-11T10:41:44;1.60;;;1.35;;
22107;SDS011;11220;48.812;9.128;2024-01-11T10:44:18;2.30;;;1.40;;
22107;SDS011;11220;48.812;9.128;2024-01-11T10:46:49;1.58;;;1.35;;
22107;SDS011;11220;48.812;9.128;2024-01-11T10:49:16;2.03;;;1.40;;
22107;SDS011;11220;48.812;9.128;2024-01-11T10:51:44;1.90;;;1.52;;
22107;SDS011;11220;48.812;9.128;2024-01-11T10:54:24;2.15;;;1.50;;
22107;SDS011;11220;48.812;9.128;2024-01-11T10:56:51;2.60;;;1.50;;
22107;SDS011;11220;48.812;9.128;2024-01-11T10:59:18;1.92;;;1.63;;
22107;SDS011;11220;48.812;9.128;2024-01-11T11:01:46;2.10;;;1.67;;
22107;SDS011;11220;48.812;9.128;2024-01-11T11:04:11;2.65;;;1.67;;
22107;SDS011;11220;48.812;9.128;2024-01-11T11:06:40;2.30;;;1.50;;
22107;SDS011;11220;48.812;9.128;2024-01-11T11:09:07;1.60;;;1.23;;
22107;SDS011;11220;48.812;9.128;2024-01-11T11:11:35;2.50;;;1.35;;
22107;SDS011;11220;48.812;9.128;2024-01-11T11:14:03;2.15;;;1.80;;
22107;SDS011;11220;48.812;9.128;2024-01-11T11:16:30;2.22;;;1.33;;
22107;SDS011;11220;48.812;9.128;2024-01-11T11:18:55;2.03;;;1.50;;
22107;SDS011;11220;48.812;9.128;2024-01-11T11:21:21;2.13;;;1.70;;
22107;SDS011;11220;48.812;9.128;2024-01-11T11:23:49;1.88;;;1.50;;
22107;SDS011;11220;48.812;9.128;2024-01-11T11:26:18;2.17;;;1.70;;
22107;SDS011;11220;48.812;9.128;2024-01-11T11:28:44;2.33;;;1.83;;
22107;SDS011;11220;48.812;9.128;2024-01-11T11:31:13;2.00;;;1.40;;
22107;SDS011;11220;48.812;9.128;2024-01-11T11:33:38;1.73;;;1.50;;
22107;SDS011;11220;48.812;9.128;2024-01-11T11:36:05;2.78;;;1.40;;
22107;SDS011;11220;48.812;9.128;2024-01-11T11:38:37;1.95;;;1.40;;
22107;SDS011;11220;48.812;9.128;2024-01-11T11:41:06;2.40;;;1.63;;
22107;SDS011;11220;48.812;9.128;2024-01-11T11:43:32;1.65;;;1.52;;
22107;SDS011;11220;48.812;9.128;2024-01-11T11:45:58;1.92;;;1.48;;
22107;SDS011;11220;48.812;9.128;2024-01-11T11:51:02;1.58;;;1.38;;
22107;SDS011;11220;48.812;9.128;2024-01-11T11:53:32;2.17;;;1.50;;
22107;SDS011;11220;48.812;9.128;2024-01-11T11:55:58;2.35;;;1.70;;
22107;SDS011;11220;48.812;9.128;2024-01-11T11:58:25;2.85;;;1.77;;
22107;SDS011;11220;48.812;9.128;2024-01-11T12:00:50;2.20;;;1.70;;
22107;SDS011;11220;48.812;9.128;2024-01-11T12:03:16;1.90;;;1.65;;
22107;SDS011;11220;48.812;9.128;2024-01-11T12:05:42;2.03;;;1.70;;
22107;SDS011;11220;48.812;9.128;2024-01-11T12:08:08;2.38;;;1.75;;
22107;SDS011;11220;48.812;9.128;2024-01-11T12:10:34;2.22;;;1.30;;
22107;SDS011;11220;48.812;9.128;2024-01-11T12:12:59;2.17;;;1.73;;
22107;SDS011;11220;48.812;9.128;2024-01-11T12:15:28;1.63;;;1.48;;
22107;SDS011;11220;48.812;9.128;2024-01-11T12:17:57;2.13;;;1.63;;
22107;SDS011;11220;48.812;9.128;2024-01-11T12:20:26;1.95;;;1.42;;
22107;SDS011;11220;48.812;9.128;2024-01-11T12:22:53;2.72;;;1.73;;
22107;SDS011;11220;48.812;9.128;2024-01-11T12:25:19;1.98;;;1.45;;
22107;SDS011;11220;48.812;9.128;2024-01-11T12:27:46;2.88;;;2.10;;
22107;SDS011;11220;48.812;9.128;2024-01-11T12:30:12;2.05;;;1.60;;
22107;SDS011;11220;48.812;9.128;2024-01-11T12:32:41;2.22;;;1.90;;
22107;SDS011;11220;48.812;9.128;2024-01-11T12:35:08;2.55;;;2.00;;
22107;SDS011;11220;48.812;9.128;2024-01-11T12:37:33;2.08;;;1.70;;
22107;SDS011;11220;48.812;9.128;2024-01-11T12:39:59;2.53;;;1.60;;
22107;SDS011;11220;48.812;9.128;2024-01-11T12:42:28;2.30;;;1.80;;
22107;SDS011;11220;48.812;9.128;2024-01-11T12:44:53;2.28;;;1.70;;
22107;SDS011;11220;48.812;9.128;2024-01-11T12:47:19;2.25;;;1.77;;
22107;SDS011;11220;48.812;9.128;2024-01-11T12:49:45;1.75;;;1.63;;
22107;SDS011;11220;48.812;9.128;2024-01-11T12:52:16;2.08;;;1.58;;
22107;SDS011;11220;48.812;9.128;2024-01-11T12:54:45;2.30;;;1.98;;
22107;SDS011;11220;48.812;9.128;2024-01-11T12:57:11;2.08;;;1.70;;
22107;SDS011;11220;48.812;9.128;2024-01-11T12:59:37;2.15;;;1.63;;
22107;SDS011;11220;48.812;9.128;2024-01-11T13:02:05;1.65;;;1.50;;
22107;SDS011;11220;48.812;9.128;2024-01-11T13:04:33;2.38;;;1.98;;
22107;SDS011;11220;48.812;9.128;2024-01-11T13:06:59;2.40;;;1.60;;
22107;SDS011;11220;48.812;9.128;2024-01-11T13:09:25;2.08;;;1.73;;
22107;SDS011;11220;48.812;9.128;2024-01-11T13:11:52;2.47;;;2.08;;
22107;SDS011;11220;48.812;9.128;2024-01-11T13:14:17;1.95;;;1.63;;
22107;SDS011;11220;48.812;9.128;2024-01-11T13:16:44;1.83;;;1.58;;
22107;SDS011;11220;48.812;9.128;2024-01-11T13:19:11;2.53;;;1.90;;
22107;SDS011;11220;48.812;9.128;2024-01-11T13:21:36;2.53;;;1.98;;
22107;SDS011;11220;48.812;9.128;2024-01-11T13:24:03;2.35;;;1.50;;
22107;SDS011;11220;48.812;9.128;2024-01-11T13:26:28;2.88;;;1.85;;
22107;SDS011;11220;48.812;9.128;2024-01-11T13:28:54;2.38;;;1.90;;
22107;SDS011;11220;48.812;9.128;2024-01-11T13:31:20;2.65;;;1.80;;
22107;SDS011;11220;48.812;9.128;2024-01-11T13:33:46;2.40;;;2.20;;
22107;SDS011;11220;48.812;9.128;2024-01-11T13:36:11;2.83;;;2.17;;
22107;SDS011;11220;48.812;9.128;2024-01-11T13:38:37;2.70;;;2.13;;
22107;SDS011;11220;48.812;9.128;2024-01-11T13:41:03;2.42;;;1.90;;
22107;SDS011;11220;48.812;9.128;2024-01-11T13:43:30;2.50;;;2.17;;
22107;SDS011;11220;48.812;9.128;2024-01-11T13:45:55;2.40;;;2.00;;
22107;SDS011;11220;48.812;9.128;2024-01-11T13:48:21;2.25;;;1.92;;
22107;SDS011;11220;48.812;9.128;2024-01-11T13:50:47;2.13;;;1.90;;
22107;SDS011;11220;48.812;9.128;2024-01-11T13:53:12;2.83;;;2.22;;
22107;SDS011;11220;48.812;9.128;2024-01-11T13:55:38;2.75;;;2.10;;
22107;SDS011;11220;48.812;9.128;2024-01-11T13:58:04;3.22;;;1.80;;
22107;SDS011;11220;48.812;9.128;2024-01-11T14:00:30;2.42;;;1.90;;
22107;SDS011;11220;48.812;9.128;2024-01-11T14:02:56;2.72;;;2.08;;
22107;SDS011;11220;48.812;9.128;2024-01-11T14:05:22;2.63;;;2.00;;
22107;SDS011;11220;48.812;9.128;2024-01-11T14:07:47;2.53;;;1.90;;
22107;SDS011;11220;48.812;9.128;2024-01-11T14:10:14;3.00;;;2.17;;
22107;SDS011;11220;48.812;9.128;2024-01-11T14:12:40;2.63;;;2.20;;
22107;SDS011;11220;48.812;9.128;2024-01-11T14:15:06;2.63;;;1.90;;
22107;SDS011;11220;48.812;9.128;2024-01-11T14:17:37;2.40;;;1.80;;
22107;SDS011;11220;48.812;9.128;2024-01-11T14:20:03;2.30;;;1.90;;
22107;SDS011;11220;48.812;9.128;2024-01-11T14:22:31;3.10;;;2.15;;
22107;SDS011;11220;48.812;9.128;2024-01-11T14:24:57;2.47;;;1.65;;
22107;SDS011;11220;48.812;9.128;2024-01-11T14:27:23;2.95;;;2.28;;
22107;SDS011;11220;48.812;9.128;2024-01-11T14:29:49;2.10;;;1.90;;
22107;SDS011;11220;48.812;9.128;2024-01-11T14:32:14;3.22;;;2.13;;
22107;SDS011;11220;48.812;9.128;2024-01-11T14:34:42;3.22;;;2.30;;
22107;SDS011;11220;48.812;9.128;2024-01-11T14:37:09;2.20;;;1.80;;
22107;SDS011;11220;48.812;9.128;2024-01-11T14:39:36;1.90;;;1.75;;
22107;SDS011;11220;48.812;9.128;2024-01-11T14:42:01;3.38;;;2.03;;
22107;SDS011;11220;48.812;9.128;2024-01-11T14:44:27;2.17;;;1.70;;